M I D A S
Marine Information and Data Acquisition System
Tripno 1647 of the Zeeleeuw from 2009-02-26 08:03:46 to 2009-02-26 16:14:52
Back to CruiseResearch ActivitiesStationsMapUnderway DataData graphs

EquipmentUnitsComment
TimeDGPSUTC
LatitudeDGPSDM.mWGS84
LongitudeDGPSDM.mWGS84
HeadingGyrodeg 
SOGDGPSknotsSpeed over ground
COGDGPSdegCourse over ground
DepthEcho soundermeters200 kHz
Missing or incorrect values are displayed as -999
Navigation data collected by the RV Zeeleeuw from 2009-02-26 08:00:54 to 2009-02-26 16:33:56
                                                                                    Next 1000 lines
Time Latitude Longitude Heading SOG COG Depth
2009-02-26 08:01:04 51°13.66 2°55.959 126 -999 123 -999
2009-02-26 08:01:09 51°13.66 2°55.959 126.3 0.1 16 -999
2009-02-26 08:01:14 51°13.661 2°55.959 125.7 -999 339 -999
2009-02-26 08:01:19 51°13.661 2°55.959 124.9 0.1 74 -999
2009-02-26 08:01:24 51°13.661 2°55.959 124.5 0.1 140 -999
2009-02-26 08:01:29 51°13.661 2°55.959 123.9 0.1 63 -999
2009-02-26 08:01:34 51°13.661 2°55.959 123.2 -999 199 -999
2009-02-26 08:01:39 51°13.661 2°55.96 122.3 -999 113 -999
2009-02-26 08:01:44 51°13.661 2°55.96 122 0.1 183 -999
2009-02-26 08:01:49 51°13.661 2°55.96 121.8 -999 197 -999
2009-02-26 08:01:54 51°13.661 2°55.96 121.3 -999 173 -999
2009-02-26 08:01:59 51°13.661 2°55.96 121.1 -999 238 -999
2009-02-26 08:02:04 51°13.66 2°55.96 120.6 -999 193 -999
2009-02-26 08:02:09 51°13.66 2°55.96 120.4 -999 193 -999
2009-02-26 08:02:14 51°13.66 2°55.96 120.1 -999 167 -999
2009-02-26 08:02:19 51°13.66 2°55.96 119.8 -999 251 -999
2009-02-26 08:02:24 51°13.66 2°55.96 119.3 -999 220 -999
2009-02-26 08:02:29 51°13.66 2°55.96 119 -999 219 -999
2009-02-26 08:02:34 51°13.66 2°55.96 118.6 -999 194 -999
2009-02-26 08:02:39 51°13.661 2°55.96 118.3 -999 262 -999
2009-02-26 08:02:44 51°13.661 2°55.96 117.9 -999 283 -999
2009-02-26 08:02:49 51°13.66 2°55.959 117.5 -999 231 -999
2009-02-26 08:02:54 51°13.66 2°55.959 117 -999 222 -999
2009-02-26 08:02:59 51°13.66 2°55.959 116.4 -999 198 -999
2009-02-26 08:03:04 51°13.66 2°55.959 116 0.1 207 -999
2009-02-26 08:03:09 51°13.66 2°55.959 115.4 0.1 195 -999
2009-02-26 08:03:14 51°13.66 2°55.959 114.8 0.1 190 -999
2009-02-26 08:03:19 51°13.66 2°55.959 114 -999 302 -999
2009-02-26 08:03:24 51°13.66 2°55.959 113.4 0.1 329 -999
2009-02-26 08:03:29 51°13.66 2°55.958 113.3 0.5 285 -999
2009-02-26 08:03:34 51°13.66 2°55.956 113.3 0.9 300 -999
2009-02-26 08:03:39 51°13.661 2°55.954 113.7 1.3 289 -999
2009-02-26 08:03:44 51°13.662 2°55.951 114 1.8 298 -999
2009-02-26 08:03:49 51°13.663 2°55.947 114.5 2.1 293 -999
2009-02-26 08:03:54 51°13.665 2°55.942 114.7 2.5 297 -999
2009-02-26 08:03:59 51°13.666 2°55.936 114.9 2.7 296 -999
2009-02-26 08:04:04 51°13.668 2°55.931 115.2 2.8 298 -999
2009-02-26 08:04:09 51°13.671 2°55.925 115.5 3 298 -999
2009-02-26 08:04:14 51°13.672 2°55.919 115.6 3.2 299 -999
2009-02-26 08:04:19 51°13.674 2°55.913 115.6 3.3 296 -999
2009-02-26 08:04:24 51°13.676 2°55.906 115.2 3.3 297 -999
2009-02-26 08:04:29 51°13.678 2°55.899 113.5 3.4 294 -999
2009-02-26 08:04:34 51°13.68 2°55.892 111.2 3.5 292 -999
2009-02-26 08:04:39 51°13.682 2°55.884 108.5 3.7 290 -999
2009-02-26 08:04:44 51°13.684 2°55.876 106.4 3.8 287 -999
2009-02-26 08:04:49 51°13.686 2°55.868 104.7 3.9 285 -999
2009-02-26 08:04:54 51°13.686 2°55.86 103.2 3.9 283 -999
2009-02-26 08:04:59 51°13.687 2°55.851 101.6 3.9 282 -999
2009-02-26 08:05:04 51°13.689 2°55.843 100 3.9 281 -999
2009-02-26 08:05:09 51°13.69 2°55.834 98.7 3.8 280 -999
2009-02-26 08:05:14 51°13.691 2°55.826 97.5 3.7 279 -999
2009-02-26 08:05:19 51°13.691 2°55.818 96.3 3.6 278 -999
2009-02-26 08:05:24 51°13.692 2°55.811 95 3.6 277 -999
2009-02-26 08:05:29 51°13.692 2°55.803 93.7 3.4 276 -999
2009-02-26 08:05:34 51°13.693 2°55.795 92.4 3.4 275 -999
2009-02-26 08:05:39 51°13.694 2°55.788 91 3.2 274 -999
2009-02-26 08:05:44 51°13.694 2°55.782 89.5 3.1 273 -999
2009-02-26 08:05:49 51°13.694 2°55.775 88 2.9 273 -999
2009-02-26 08:05:54 51°13.694 2°55.769 86.6 2.7 271 -999
2009-02-26 08:05:59 51°13.694 2°55.763 85.3 2.5 270 -999
2009-02-26 08:06:04 51°13.693 2°55.758 84.2 2.3 269 -999
2009-02-26 08:06:09 51°13.694 2°55.754 82.4 1.9 270 10.2
2009-02-26 08:06:14 51°13.694 2°55.751 81.3 1.5 270 10.4
2009-02-26 08:06:19 51°13.694 2°55.749 79.7 1 271 10.4
2009-02-26 08:06:24 51°13.695 2°55.748 77.1 0.6 288 10.4
2009-02-26 08:06:29 51°13.695 2°55.748 74.6 0.4 333 10.5
2009-02-26 08:06:34 51°13.696 2°55.748 70.5 0.5 24 10.4
2009-02-26 08:06:39 51°13.697 2°55.749 65.6 0.8 36 10.4
2009-02-26 08:06:44 51°13.698 2°55.75 59.2 0.9 37 10.3
2009-02-26 08:06:49 51°13.699 2°55.752 53.7 1.1 33 10.3
2009-02-26 08:06:54 51°13.701 2°55.753 48.1 1.3 31 10.2
2009-02-26 08:06:59 51°13.702 2°55.754 43.9 1.4 29 10.1
2009-02-26 08:07:04 51°13.704 2°55.756 38.9 1.4 26 10.1
2009-02-26 08:07:09 51°13.706 2°55.757 32.9 1.3 22 10
2009-02-26 08:07:14 51°13.707 2°55.758 28.8 1.2 20 10
2009-02-26 08:07:19 51°13.709 2°55.758 25.8 1 13 10
2009-02-26 08:07:24 51°13.71 2°55.758 23.3 0.8 15 9.9
2009-02-26 08:07:28 51°13.71 2°55.758 20.6 0.5 6 9.9
2009-02-26 08:07:34 51°13.71 2°55.759 18.3 0.2 16 9.9
2009-02-26 08:07:39 51°13.711 2°55.758 15.2 0.1 226 9.9
2009-02-26 08:07:44 51°13.71 2°55.758 12.8 0.3 190 9.9
2009-02-26 08:07:48 51°13.71 2°55.758 11 0.6 196 9.9
2009-02-26 08:07:54 51°13.708 2°55.758 9.7 0.9 190 9.9
2009-02-26 08:07:59 51°13.707 2°55.757 8.6 1.1 191 9.9
2009-02-26 08:08:04 51°13.705 2°55.757 7.7 1.1 190 10
2009-02-26 08:08:09 51°13.704 2°55.757 6.9 1 191 -999
2009-02-26 08:08:14 51°13.702 2°55.756 6.4 0.9 192 -999
2009-02-26 08:08:19 51°13.701 2°55.755 5.9 0.8 193 -999
2009-02-26 08:08:24 51°13.7 2°55.755 5.3 0.6 200 -999
2009-02-26 08:08:29 51°13.7 2°55.754 4.4 0.3 216 -999
2009-02-26 08:08:34 51°13.7 2°55.754 2.3 0.2 303 4.7
2009-02-26 08:08:39 51°13.701 2°55.753 0.5 0.5 336 4.8
2009-02-26 08:08:44 51°13.702 2°55.753 357.9 0.8 341 5.1
2009-02-26 08:08:49 51°13.703 2°55.752 353.6 1.1 342 -999
2009-02-26 08:08:54 51°13.705 2°55.751 347.7 1.5 337 -999
2009-02-26 08:08:59 51°13.707 2°55.749 340.5 1.9 335 -999
2009-02-26 08:09:04 51°13.71 2°55.747 337.1 2.4 332 4.9
2009-02-26 08:09:09 51°13.714 2°55.743 334.7 3.2 332 5
2009-02-26 08:09:14 51°13.719 2°55.739 332.6 4.1 328 -999
2009-02-26 08:09:19 51°13.724 2°55.733 330.5 4.7 329 9.9
2009-02-26 08:09:24 51°13.73 2°55.727 330.1 5.1 328 9.9
2009-02-26 08:09:29 51°13.737 2°55.721 330.3 5.7 330 9.7
2009-02-26 08:09:34 51°13.744 2°55.713 330.5 6.2 328 9.5
2009-02-26 08:09:39 51°13.752 2°55.707 330.7 6.5 330 9.4
2009-02-26 08:09:44 51°13.76 2°55.699 331.1 6.8 329 9
2009-02-26 08:09:49 51°13.768 2°55.691 331.1 7.1 329 8.8
2009-02-26 08:09:54 51°13.777 2°55.683 330.9 7.3 331 8.7
2009-02-26 08:09:59 51°13.786 2°55.675 331.6 7.5 330 8.7
2009-02-26 08:10:04 51°13.795 2°55.667 331.7 7.6 331 8.7
2009-02-26 08:10:09 51°13.805 2°55.659 332 7.8 331 8.7
2009-02-26 08:10:14 51°13.815 2°55.65 332.1 7.9 332 8.7
2009-02-26 08:10:19 51°13.824 2°55.642 332.7 8.1 333 8.7
2009-02-26 08:10:24 51°13.834 2°55.633 333.8 8.2 333 8.6
2009-02-26 08:10:29 51°13.844 2°55.625 334.1 8.2 332 8.5
2009-02-26 08:10:34 51°13.855 2°55.617 334 8.3 334 8.4
2009-02-26 08:10:39 51°13.865 2°55.609 334.9 8.3 334 8.5
2009-02-26 08:10:44 51°13.876 2°55.601 335.4 8.4 334 8.5
2009-02-26 08:10:49 51°13.886 2°55.593 335.5 8.5 335 8.5
2009-02-26 08:10:54 51°13.897 2°55.584 335.8 8.6 334 8.6
2009-02-26 08:10:59 51°13.908 2°55.577 336.4 8.6 335 8.6
2009-02-26 08:11:04 51°13.918 2°55.568 336.8 8.6 333 8.6
2009-02-26 08:11:09 51°13.929 2°55.56 336.2 8.7 335 8.6
2009-02-26 08:11:14 51°13.94 2°55.551 336 8.8 334 8.7
2009-02-26 08:11:19 51°13.951 2°55.543 336.3 8.7 336 8.7
2009-02-26 08:11:24 51°13.962 2°55.535 336.9 8.8 335 8.7
2009-02-26 08:11:29 51°13.973 2°55.527 336.9 8.8 335 8.7
2009-02-26 08:11:34 51°13.984 2°55.519 336.7 8.7 335 8.7
2009-02-26 08:11:39 51°13.995 2°55.511 336.8 8.7 335 8.6
2009-02-26 08:11:44 51°14.006 2°55.503 336.8 8.7 335 8.6
2009-02-26 08:11:49 51°14.017 2°55.494 336.6 8.7 335 -999
2009-02-26 08:11:54 51°14.028 2°55.486 336.3 8.7 334 8.5
2009-02-26 08:11:59 51°14.039 2°55.478 336.1 8.7 335 8.5
2009-02-26 08:12:04 51°14.05 2°55.47 336.5 8.7 335 -999
2009-02-26 08:12:09 51°14.061 2°55.462 336.8 8.8 335 8.5
2009-02-26 08:12:14 51°14.073 2°55.454 336.8 8.8 335 8.6
2009-02-26 08:12:19 51°14.084 2°55.446 336.7 8.8 336 8.5
2009-02-26 08:12:24 51°14.094 2°55.437 336.9 8.7 335 -999
2009-02-26 08:12:29 51°14.105 2°55.429 336.9 8.7 335 -999
2009-02-26 08:12:34 51°14.116 2°55.421 336.4 8.7 334 8.6
2009-02-26 08:12:39 51°14.127 2°55.412 336 8.6 333 8.6
2009-02-26 08:12:44 51°14.137 2°55.403 335.3 8.6 332 -999
2009-02-26 08:12:49 51°14.148 2°55.394 334 8.7 331 -999
2009-02-26 08:12:54 51°14.158 2°55.384 332.2 8.7 330 -999
2009-02-26 08:12:59 51°14.168 2°55.374 331.6 8.6 330 -999
2009-02-26 08:13:04 51°14.179 2°55.364 331 8.6 328 -999
2009-02-26 08:13:09 51°14.189 2°55.354 329.9 8.7 327 8.6
2009-02-26 08:13:14 51°14.199 2°55.343 328.5 8.7 325 8.6
2009-02-26 08:13:19 51°14.209 2°55.332 327 8.7 324 8.6
2009-02-26 08:13:24 51°14.218 2°55.32 325.6 8.7 323 -999
2009-02-26 08:13:29 51°14.228 2°55.308 324 8.8 321 -999
2009-02-26 08:13:34 51°14.237 2°55.296 322.4 8.7 320 -999
2009-02-26 08:13:39 51°14.245 2°55.283 320.7 8.7 318 -999
2009-02-26 08:13:44 51°14.254 2°55.27 319.3 8.7 317 9.2
2009-02-26 08:13:49 51°14.262 2°55.256 318.1 8.7 314 -999
2009-02-26 08:13:54 51°14.271 2°55.242 316.4 8.7 314 9.2
2009-02-26 08:13:59 51°14.279 2°55.228 314.9 8.8 312 9.1
2009-02-26 08:14:04 51°14.287 2°55.214 313.6 8.8 312 9.3
2009-02-26 08:14:09 51°14.295 2°55.199 312.7 8.8 310 -999
2009-02-26 08:14:14 51°14.303 2°55.184 311.5 8.9 310 9.1
2009-02-26 08:14:19 51°14.311 2°55.169 310.9 8.8 310 -999
2009-02-26 08:14:24 51°14.319 2°55.154 310.9 8.9 311 -999
2009-02-26 08:14:29 51°14.327 2°55.139 311.5 8.9 311 -999
2009-02-26 08:14:34 51°14.334 2°55.124 311.1 8.8 309 -999
2009-02-26 08:14:39 51°14.342 2°55.109 310.6 8.8 310 -999
2009-02-26 08:14:44 51°14.35 2°55.094 310.5 8.8 310 -999
2009-02-26 08:14:49 51°14.358 2°55.079 310.8 8.8 311 -999
2009-02-26 08:14:54 51°14.366 2°55.064 310.8 8.9 309 9
2009-02-26 08:14:59 51°14.374 2°55.048 310.7 9 310 9.1
2009-02-26 08:15:04 51°14.382 2°55.033 310.7 9.1 310 9.2
2009-02-26 08:15:09 51°14.391 2°55.018 310.8 9.1 312 9.1
2009-02-26 08:15:14 51°14.4 2°55.004 312.6 9.3 314 9.2
2009-02-26 08:15:19 51°14.409 2°54.989 315.3 9.3 317 9.2
2009-02-26 08:15:24 51°14.419 2°54.975 318.1 9.4 319 9.2
2009-02-26 08:15:29 51°14.43 2°54.962 321.1 9.5 320 9.2
2009-02-26 08:15:34 51°14.44 2°54.949 323.2 9.6 322 9.3
2009-02-26 08:15:39 51°14.451 2°54.936 325.3 9.7 323 9.4
2009-02-26 08:15:44 51°14.462 2°54.924 327.5 9.9 325 9.4
2009-02-26 08:15:49 51°14.473 2°54.911 329.6 10 325 9.3
2009-02-26 08:15:54 51°14.484 2°54.897 330.3 10 322 9.2
2009-02-26 08:15:59 51°14.495 2°54.883 329.3 10.1 321 9.2
2009-02-26 08:16:03 51°14.504 2°54.872 328 10.2 321 9.2
2009-02-26 08:16:09 51°14.517 2°54.855 327.7 10.2 321 9.1
2009-02-26 08:16:14 51°14.528 2°54.841 327.9 10.3 321 9.1
2009-02-26 08:16:19 51°14.54 2°54.826 328.2 10.4 322 8.9
2009-02-26 08:16:24 51°14.551 2°54.812 328.3 10.4 322 8.9
2009-02-26 08:16:29 51°14.563 2°54.798 328.9 10.6 322 8.8
2009-02-26 08:16:34 51°14.574 2°54.783 329 10.7 322 8.7
2009-02-26 08:16:39 51°14.586 2°54.769 329 10.8 322 8.7
2009-02-26 08:16:44 51°14.598 2°54.754 329.1 10.9 321 8.7
2009-02-26 08:16:49 51°14.61 2°54.739 329 11 322 8.6
2009-02-26 08:16:54 51°14.622 2°54.723 328.9 11.2 321 8.5
2009-02-26 08:16:59 51°14.634 2°54.707 328.9 11.3 321 8.5
2009-02-26 08:17:04 51°14.646 2°54.691 328.9 11.4 321 8.6
2009-02-26 08:17:09 51°14.658 2°54.675 328.1 11.5 321 8.6
2009-02-26 08:17:14 51°14.671 2°54.659 328.2 11.6 321 8.6
2009-02-26 08:17:19 51°14.684 2°54.643 328.2 11.7 321 8.7
2009-02-26 08:17:24 51°14.696 2°54.627 328 11.7 322 8.6
2009-02-26 08:17:29 51°14.709 2°54.611 328.5 11.8 322 8.6
2009-02-26 08:17:34 51°14.722 2°54.595 328.8 11.7 322 8.6
2009-02-26 08:17:39 51°14.735 2°54.58 329 11.7 323 8.6
2009-02-26 08:17:44 51°14.748 2°54.564 329.6 11.8 323 8.6
2009-02-26 08:17:49 51°14.761 2°54.549 329.7 11.7 324 8.6
2009-02-26 08:17:54 51°14.775 2°54.533 329.8 11.7 323 8.4
2009-02-26 08:17:59 51°14.788 2°54.518 329.5 11.7 324 8.4
2009-02-26 08:18:04 51°14.801 2°54.503 329.3 11.7 324 8.4
2009-02-26 08:18:09 51°14.814 2°54.487 329.3 11.7 323 8.5
2009-02-26 08:18:14 51°14.827 2°54.472 328.9 11.7 324 8.4
2009-02-26 08:18:19 51°14.84 2°54.456 329.1 11.7 323 8.4
2009-02-26 08:18:24 51°14.853 2°54.441 328.6 11.6 324 8.4
2009-02-26 08:18:29 51°14.866 2°54.426 328.5 11.7 323 8.3
2009-02-26 08:18:34 51°14.879 2°54.41 328.6 11.7 323 8.2
2009-02-26 08:18:39 51°14.892 2°54.395 328.5 11.7 324 8.1
2009-02-26 08:18:43 51°14.903 2°54.383 328.9 11.6 324 7.9
2009-02-26 08:18:49 51°14.918 2°54.365 329.1 11.5 323 7.8
2009-02-26 08:18:54 51°14.931 2°54.349 328.8 11.5 323 7.7
2009-02-26 08:18:59 51°14.943 2°54.333 328.3 11.5 321 5.5
2009-02-26 08:19:03 51°14.953 2°54.321 327.3 11.4 322 7.4
2009-02-26 08:19:08 51°14.965 2°54.305 326.8 11.4 322 7.3
2009-02-26 08:19:14 51°14.981 2°54.287 327.3 11.3 324 7.3
2009-02-26 08:19:19 51°14.993 2°54.272 328.3 11.4 323 7.2
2009-02-26 08:19:23 51°15.003 2°54.261 328.9 11.4 325 7.3
2009-02-26 08:19:28 51°15.016 2°54.246 329.6 11.4 323 7.2
2009-02-26 08:19:33 51°15.029 2°54.231 329.7 11.3 325 7.2
2009-02-26 08:19:39 51°15.044 2°54.214 330.2 11.4 324 7.2
2009-02-26 08:19:43 51°15.055 2°54.202 330.5 11.4 325 7.2
2009-02-26 08:19:48 51°15.068 2°54.188 330.7 11.4 325 7.3
2009-02-26 08:19:54 51°15.083 2°54.171 331.1 11.4 326 7.3
2009-02-26 08:19:59 51°15.096 2°54.157 331.8 11.5 325 7.4
2009-02-26 08:20:04 51°15.109 2°54.142 331.9 11.5 325 7.4
2009-02-26 08:20:08 51°15.12 2°54.131 331.7 11.5 325 7.5
2009-02-26 08:20:14 51°15.136 2°54.114 331.5 11.5 326 7.5
2009-02-26 08:20:19 51°15.149 2°54.099 331.6 11.5 326 7.5
2009-02-26 08:20:24 51°15.162 2°54.085 331.7 11.5 326 7.5
2009-02-26 08:20:29 51°15.176 2°54.071 331.7 11.5 326 7.6
2009-02-26 08:20:34 51°15.189 2°54.057 331.9 11.6 326 7.6
2009-02-26 08:20:39 51°15.202 2°54.043 331.9 11.5 326 7.6
2009-02-26 08:20:43 51°15.213 2°54.031 332 11.6 326 7.7
2009-02-26 08:20:48 51°15.226 2°54.017 331.9 11.5 326 7.7
2009-02-26 08:20:54 51°15.242 2°53.999 331.7 11.5 326 7.7
2009-02-26 08:20:59 51°15.255 2°53.985 332 11.6 326 7.8
2009-02-26 08:21:03 51°15.266 2°53.973 332.1 11.6 325 7.8
2009-02-26 08:21:08 51°15.279 2°53.959 332 11.6 327 7.9
2009-02-26 08:21:14 51°15.295 2°53.941 332.9 11.7 326 8
2009-02-26 08:21:19 51°15.309 2°53.927 333.2 11.7 327 8.2
2009-02-26 08:21:23 51°15.319 2°53.916 333.3 11.7 325 8.2
2009-02-26 08:21:28 51°15.333 2°53.901 332.9 11.7 326 8.3
2009-02-26 08:21:34 51°15.349 2°53.884 332.5 11.7 326 8.5
2009-02-26 08:21:39 51°15.363 2°53.87 333.1 11.6 328 8.5
2009-02-26 08:21:43 51°15.373 2°53.859 333.9 11.6 326 8.5
2009-02-26 08:21:48 51°15.387 2°53.846 334.1 11.6 329 8.6
2009-02-26 08:21:54 51°15.403 2°53.829 334.6 11.6 327 8.6
2009-02-26 08:21:59 51°15.417 2°53.816 334.7 11.6 328 8.7
2009-02-26 08:22:03 51°15.428 2°53.805 334.7 11.6 328 8.8
2009-02-26 08:22:08 51°15.441 2°53.791 335 11.6 328 8.8
2009-02-26 08:22:14 51°15.458 2°53.775 335 11.7 328 8.9
2009-02-26 08:22:19 51°15.471 2°53.761 334.8 11.7 328 9.1
2009-02-26 08:22:23 51°15.482 2°53.75 334.7 11.7 328 9.1
2009-02-26 08:22:28 51°15.496 2°53.737 335.3 11.6 330 9.3
2009-02-26 08:22:34 51°15.513 2°53.721 336.4 11.7 328 9.3
2009-02-26 08:22:39 51°15.527 2°53.708 336.5 11.7 330 9.4
2009-02-26 08:22:44 51°15.541 2°53.695 336.6 11.7 330 9.6
2009-02-26 08:22:48 51°15.552 2°53.685 337.2 11.7 330 9.6
2009-02-26 08:22:54 51°15.569 2°53.669 337.5 11.7 330 9.7
2009-02-26 08:22:59 51°15.583 2°53.657 337.3 11.7 332 9.9
2009-02-26 08:23:03 51°15.595 2°53.647 337.9 11.7 330 9.8
2009-02-26 08:23:08 51°15.609 2°53.634 337.9 11.7 330 10
2009-02-26 08:23:14 51°15.625 2°53.618 337.7 11.7 329 10
2009-02-26 08:23:19 51°15.64 2°53.605 337.7 11.7 331 10.1
2009-02-26 08:23:23 51°15.651 2°53.595 337.8 11.7 330 10.4
2009-02-26 08:23:28 51°15.665 2°53.582 337.8 11.7 331 10.3
2009-02-26 08:23:34 51°15.682 2°53.567 337.8 11.7 331 10.5
2009-02-26 08:23:39 51°15.696 2°53.554 337.7 11.7 330 10.6
2009-02-26 08:23:43 51°15.708 2°53.543 337.2 11.8 329 10.7
2009-02-26 08:23:48 51°15.721 2°53.529 336.5 11.7 330 10.6
2009-02-26 08:23:54 51°15.738 2°53.514 336.4 11.8 330 10.8
2009-02-26 08:23:59 51°15.753 2°53.501 336.8 11.8 330 10.7
2009-02-26 08:24:03 51°15.764 2°53.49 336.5 11.7 328 10.5
2009-02-26 08:24:08 51°15.777 2°53.477 335.6 11.8 329 10.9
2009-02-26 08:24:14 51°15.794 2°53.46 335.4 11.8 328 11
2009-02-26 08:24:19 51°15.808 2°53.446 334.7 11.8 328 10.7
2009-02-26 08:24:23 51°15.819 2°53.435 334.1 11.7 327 10.9
2009-02-26 08:24:28 51°15.833 2°53.42 333.8 11.8 327 10.9
2009-02-26 08:24:33 51°15.846 2°53.406 334.1 11.8 327 10.9
2009-02-26 08:24:39 51°15.863 2°53.388 333.9 11.8 327 10.7
2009-02-26 08:24:44 51°15.877 2°53.375 333.7 11.7 327 10.7
2009-02-26 08:24:48 51°15.887 2°53.363 334 11.8 327 10.9
2009-02-26 08:24:54 51°15.904 2°53.346 334 11.8 328 10.9
2009-02-26 08:24:59 51°15.918 2°53.332 334.5 11.8 327 10.9
2009-02-26 08:25:03 51°15.929 2°53.321 334.3 11.8 328 10.9
2009-02-26 08:25:08 51°15.942 2°53.307 334.5 11.8 328 11
2009-02-26 08:25:14 51°15.959 2°53.291 334.7 11.7 329 10.9
2009-02-26 08:25:19 51°15.973 2°53.277 335.8 11.7 329 10.9
2009-02-26 08:25:23 51°15.984 2°53.266 335.9 11.7 328 10.6
2009-02-26 08:25:29 51°16.001 2°53.25 335.2 11.7 328 11.2
2009-02-26 08:25:34 51°16.014 2°53.236 334.7 11.7 328 11.1
2009-02-26 08:25:39 51°16.028 2°53.223 335.1 11.7 329 10.8
2009-02-26 08:25:43 51°16.039 2°53.213 335.8 11.7 329 10.9
2009-02-26 08:25:49 51°16.056 2°53.197 336.4 11.6 330 10.8
2009-02-26 08:25:54 51°16.07 2°53.184 336.9 11.6 330 10.7
2009-02-26 08:25:59 51°16.084 2°53.171 336.8 11.6 329 10.8
2009-02-26 08:26:03 51°16.095 2°53.161 336.5 11.6 330 10.7
2009-02-26 08:26:08 51°16.109 2°53.147 336.8 11.6 328 10.9
2009-02-26 08:26:14 51°16.125 2°53.131 336.1 11.6 328 10.8
2009-02-26 08:26:19 51°16.139 2°53.118 335.5 11.7 329 10.8
2009-02-26 08:26:23 51°16.15 2°53.107 336.1 11.6 330 10.8
2009-02-26 08:26:28 51°16.164 2°53.094 336.7 11.7 328 10.9
2009-02-26 08:26:33 51°16.178 2°53.081 336.4 11.6 330 10.9
2009-02-26 08:26:39 51°16.195 2°53.065 336.9 11.6 329 10.9
2009-02-26 08:26:43 51°16.206 2°53.054 336.5 11.7 328 10.9
2009-02-26 08:26:48 51°16.22 2°53.041 335.3 11.6 329 10.9
2009-02-26 08:26:54 51°16.236 2°53.025 335.4 11.6 328 10.9
2009-02-26 08:26:59 51°16.25 2°53.011 335.4 11.7 328 10.9
2009-02-26 08:27:04 51°16.263 2°52.997 334.7 11.7 327 10.9
2009-02-26 08:27:08 51°16.274 2°52.986 334.2 11.7 327 10.9
2009-02-26 08:27:13 51°16.288 2°52.973 334.2 11.7 328 11.4
2009-02-26 08:27:19 51°16.305 2°52.957 334.8 11.7 330 10.9
2009-02-26 08:27:23 51°16.316 2°52.947 335.9 11.6 331 10.9
2009-02-26 08:27:28 51°16.33 2°52.934 336.4 11.6 331 10.9
2009-02-26 08:27:33 51°16.344 2°52.923 337.2 11.5 334 10.9
2009-02-26 08:27:39 51°16.362 2°52.91 338.5 11.5 335 10.9
2009-02-26 08:27:43 51°16.374 2°52.902 340.2 11.5 336 10.9
2009-02-26 08:27:48 51°16.388 2°52.892 341.4 11.5 337 10.9
2009-02-26 08:27:54 51°16.406 2°52.881 342.1 11.5 338 10.9
2009-02-26 08:27:59 51°16.421 2°52.872 342.8 11.5 339 10.9
2009-02-26 08:28:03 51°16.433 2°52.865 343.5 11.5 339 10.9
2009-02-26 08:28:08 51°16.448 2°52.857 344.2 11.5 341 10.9
2009-02-26 08:28:14 51°16.466 2°52.846 345.2 11.5 340 10.9
2009-02-26 08:28:19 51°16.481 2°52.838 345.3 11.5 342 10.9
2009-02-26 08:28:23 51°16.493 2°52.831 345.7 11.5 341 10.8
2009-02-26 08:28:28 51°16.508 2°52.823 345.9 11.5 342 10.7
2009-02-26 08:28:34 51°16.526 2°52.813 346.3 11.4 341 10.8
2009-02-26 08:28:39 51°16.541 2°52.805 346.3 11.4 342 10.9
2009-02-26 08:28:43 51°16.553 2°52.798 346 11.5 341 10.8
2009-02-26 08:28:48 51°16.568 2°52.79 345.7 11.4 341 10.7
2009-02-26 08:28:53 51°16.583 2°52.782 345.9 11.4 340 10.6
2009-02-26 08:28:59 51°16.601 2°52.772 345.6 11.5 341 10.6
2009-02-26 08:29:03 51°16.613 2°52.764 345.4 11.4 340 10.5
2009-02-26 08:29:08 51°16.628 2°52.757 345.2 11.3 342 10.4
2009-02-26 08:29:14 51°16.646 2°52.746 345.3 11.3 341 10.4
2009-02-26 08:29:19 51°16.661 2°52.74 345.8 11.2 344 10.2
2009-02-26 08:29:23 51°16.673 2°52.734 347.4 11.3 342 10
2009-02-26 08:29:28 51°16.688 2°52.728 347.9 11.2 346 9.9
2009-02-26 08:29:33 51°16.703 2°52.72 349 11.2 342 9.9
2009-02-26 08:29:39 51°16.72 2°52.713 348.2 11.1 345 9.7
2009-02-26 08:29:44 51°16.735 2°52.705 348.2 11.1 342 9.4
2009-02-26 08:29:48 51°16.747 2°52.7 348.1 11.1 345 9.1
2009-02-26 08:29:54 51°16.765 2°52.692 348.5 11 345 8.8
2009-02-26 08:29:59 51°16.779 2°52.686 349.2 11 345 8.7
2009-02-26 08:30:03 51°16.791 2°52.682 349.5 11 346 8.8
2009-02-26 08:30:09 51°16.809 2°52.674 350.3 11 345 8.8
2009-02-26 08:30:14 51°16.824 2°52.668 350.3 11.1 344 8.8
2009-02-26 08:30:19 51°16.838 2°52.661 349.6 11 344 8.6
2009-02-26 08:30:23 51°16.85 2°52.656 349 11 344 8.6
2009-02-26 08:30:28 51°16.865 2°52.649 348.6 10.9 343 8.5
2009-02-26 08:30:34 51°16.882 2°52.64 348.3 10.9 343 8.6
2009-02-26 08:30:39 51°16.896 2°52.634 348 10.9 344 8.7
2009-02-26 08:30:43 51°16.908 2°52.628 348.3 10.9 343 8.8
2009-02-26 08:30:48 51°16.923 2°52.621 348.2 11 343 8.9
2009-02-26 08:30:54 51°16.94 2°52.613 347.7 11 343 8.9
2009-02-26 08:30:59 51°16.955 2°52.605 347.7 11 343 9
2009-02-26 08:31:03 51°16.966 2°52.6 348 11 344 9
2009-02-26 08:31:08 51°16.981 2°52.593 348.5 10.9 343 9
2009-02-26 08:31:14 51°16.998 2°52.585 348.2 10.9 344 9
2009-02-26 08:31:19 51°17.013 2°52.578 348.5 10.9 344 9
2009-02-26 08:31:23 51°17.024 2°52.573 348.4 10.9 344 8.6
2009-02-26 08:31:29 51°17.042 2°52.564 348.5 10.9 343 8.6
2009-02-26 08:31:34 51°17.056 2°52.557 348 10.9 344 8.5
2009-02-26 08:31:39 51°17.07 2°52.55 348.4 10.9 342 8.6
2009-02-26 08:31:44 51°17.085 2°52.544 348.1 10.9 344 8.7
2009-02-26 08:31:49 51°17.1 2°52.538 348.5 10.9 345 8.7
2009-02-26 08:31:54 51°17.114 2°52.531 349.3 10.9 345 8.7
2009-02-26 08:31:59 51°17.129 2°52.528 351 10.8 351 8.7
2009-02-26 08:32:04 51°17.144 2°52.522 353.3 10.9 347 8.9
2009-02-26 08:32:09 51°17.159 2°52.52 354.3 10.9 353 8.9
2009-02-26 08:32:14 51°17.173 2°52.515 355.7 10.8 349 8.9
2009-02-26 08:32:19 51°17.188 2°52.512 355.7 10.8 352 8.9
2009-02-26 08:32:24 51°17.203 2°52.509 355.9 10.8 352 8.9
2009-02-26 08:32:29 51°17.218 2°52.505 356.5 10.8 352 8.9
2009-02-26 08:32:34 51°17.232 2°52.502 356.8 10.7 352 9
2009-02-26 08:32:39 51°17.247 2°52.499 356.9 10.8 353 9.1
2009-02-26 08:32:44 51°17.262 2°52.496 357 10.8 352 9.2
2009-02-26 08:32:49 51°17.277 2°52.493 357 10.8 353 9.2
2009-02-26 08:32:54 51°17.292 2°52.491 357.2 10.7 356 9.3
2009-02-26 08:32:59 51°17.306 2°52.491 358 10.5 1 9.1
2009-02-26 08:33:04 51°17.32 2°52.495 3 10.3 10 9.2
2009-02-26 08:33:09 51°17.334 2°52.5 9.5 10.3 13 9.2
2009-02-26 08:33:14 51°17.348 2°52.509 16 10.3 19 9.2
2009-02-26 08:33:19 51°17.361 2°52.515 19.3 10.3 18 9.2
2009-02-26 08:33:24 51°17.374 2°52.525 21 10.4 24 9.4
2009-02-26 08:33:29 51°17.388 2°52.533 23.3 10.4 21 9.4
2009-02-26 08:33:34 51°17.401 2°52.544 24.4 10.4 27 9.3
2009-02-26 08:33:39 51°17.413 2°52.555 26 10.4 29 9.3
2009-02-26 08:33:44 51°17.426 2°52.566 29.7 10.3 28 9.3
2009-02-26 08:33:49 51°17.438 2°52.579 30.2 10.4 34 9.3
2009-02-26 08:33:54 51°17.45 2°52.591 32.5 10.4 32 9.3
2009-02-26 08:33:59 51°17.461 2°52.606 34 10.4 40 9.4
2009-02-26 08:34:04 51°17.473 2°52.618 36 10.4 37 9.4
2009-02-26 08:34:09 51°17.483 2°52.635 36.4 10.4 42 9.2
2009-02-26 08:34:14 51°17.495 2°52.648 38.4 10.4 38 9.4
2009-02-26 08:34:19 51°17.506 2°52.664 39.5 10.4 42 9.3
2009-02-26 08:34:24 51°17.518 2°52.678 40 10.4 38 9.3
2009-02-26 08:34:29 51°17.528 2°52.694 39.4 10.4 43 9.3
2009-02-26 08:34:34 51°17.539 2°52.709 40.3 10.4 41 9.4
2009-02-26 08:34:39 51°17.55 2°52.724 41 10.5 43 9.4
2009-02-26 08:34:44 51°17.561 2°52.74 40.9 10.5 40 9.2
2009-02-26 08:34:49 51°17.571 2°52.755 41.2 10.5 42 9.2
2009-02-26 08:34:54 51°17.582 2°52.77 41.1 10.4 43 9.3
2009-02-26 08:34:59 51°17.593 2°52.786 41.9 10.5 40 9.3
2009-02-26 08:35:04 51°17.603 2°52.802 41.7 10.5 46 9.2
2009-02-26 08:35:09 51°17.614 2°52.818 43.2 10.4 44 9.2
2009-02-26 08:35:14 51°17.624 2°52.835 43.6 10.5 43 9.2
2009-02-26 08:35:19 51°17.635 2°52.851 43.2 10.6 47 9.3
2009-02-26 08:35:24 51°17.645 2°52.867 44 10.4 41 9.3
2009-02-26 08:35:29 51°17.656 2°52.883 43.8 10.5 45 9.2
2009-02-26 08:35:34 51°17.666 2°52.899 44.3 10.4 43 9.2
2009-02-26 08:35:39 51°17.677 2°52.915 43.5 10.4 43 9.2
2009-02-26 08:35:44 51°17.687 2°52.931 42.5 10.5 45 9.2
2009-02-26 08:35:49 51°17.698 2°52.946 43.4 10.5 41 9.3
2009-02-26 08:35:54 51°17.708 2°52.962 42.2 10.5 44 9.2
2009-02-26 08:35:59 51°17.719 2°52.978 42.9 10.4 43 9.2
2009-02-26 08:36:04 51°17.729 2°52.995 43.2 10.4 44 9.1
2009-02-26 08:36:09 51°17.74 2°53.01 43.7 10.4 42 9.2
2009-02-26 08:36:14 51°17.749 2°53.027 43.5 10.5 47 9.2
2009-02-26 08:36:19 51°17.76 2°53.043 44.8 10.4 43 9.2
2009-02-26 08:36:24 51°17.77 2°53.059 45.1 10.4 45 9.2
2009-02-26 08:36:29 51°17.78 2°53.075 45.3 10.4 45 9.2
2009-02-26 08:36:34 51°17.79 2°53.092 45.2 10.4 45 9.3
2009-02-26 08:36:39 51°17.8 2°53.108 44.7 10.4 46 9.3
2009-02-26 08:36:44 51°17.81 2°53.124 45.3 10.3 45 9.3
2009-02-26 08:36:49 51°17.82 2°53.141 45.4 10.3 46 9.3
2009-02-26 08:36:54 51°17.831 2°53.156 45.1 10.3 44 9.3
2009-02-26 08:36:59 51°17.84 2°53.173 44.9 10.3 47 9.3
2009-02-26 08:37:04 51°17.85 2°53.188 45.8 10.3 43 9.3
2009-02-26 08:37:09 51°17.86 2°53.205 44.4 10.3 47 9.3
2009-02-26 08:37:14 51°17.871 2°53.221 45.1 10.3 43 9.3
2009-02-26 08:37:19 51°17.881 2°53.238 45.1 10.3 45 9.3
2009-02-26 08:37:24 51°17.892 2°53.252 44.5 10.3 44 9.3
2009-02-26 08:37:29 51°17.901 2°53.27 44.4 10.4 46 9.3
2009-02-26 08:37:34 51°17.913 2°53.284 44.5 10.3 40 9.3
2009-02-26 08:37:39 51°17.922 2°53.3 43.4 10.3 45 9.4
2009-02-26 08:37:44 51°17.933 2°53.316 43.7 10.4 42 9.4
2009-02-26 08:37:49 51°17.943 2°53.332 43.6 10.3 45 9.3
2009-02-26 08:37:54 51°17.954 2°53.347 43.9 10.3 44 9.4
2009-02-26 08:37:59 51°17.964 2°53.363 44 10.3 43 9.3
2009-02-26 08:38:04 51°17.974 2°53.379 43.5 10.2 45 9.3
2009-02-26 08:38:09 51°17.985 2°53.394 44.4 10.2 43 9.3
2009-02-26 08:38:14 51°17.994 2°53.411 44.3 10.2 44 9.3
2009-02-26 08:38:19 51°18.006 2°53.424 43.6 10.3 44 9.4
2009-02-26 08:38:24 51°18.015 2°53.441 43.5 10.2 41 9.5
2009-02-26 08:38:29 51°18.026 2°53.455 43 10.3 42 9.4
2009-02-26 08:38:34 51°18.037 2°53.471 43.2 10.2 41 9.5
2009-02-26 08:38:39 51°18.047 2°53.487 42.6 10.3 45 9.5
2009-02-26 08:38:44 51°18.058 2°53.501 44 10.2 40 9.5
2009-02-26 08:38:49 51°18.068 2°53.518 42.9 10.3 46 9.5
2009-02-26 08:38:54 51°18.078 2°53.533 43.8 10.3 42 9.6
2009-02-26 08:38:59 51°18.088 2°53.55 44.5 10.2 42 9.5
2009-02-26 08:39:04 51°18.099 2°53.564 44 10.3 44 9.5
2009-02-26 08:39:09 51°18.108 2°53.581 44.3 10.3 46 9.5
2009-02-26 08:39:14 51°18.119 2°53.595 44.6 10.2 41 9.6
2009-02-26 08:39:19 51°18.129 2°53.612 43.8 10.2 45 9.6
2009-02-26 08:39:24 51°18.139 2°53.627 44.3 10.3 45 9.6
2009-02-26 08:39:29 51°18.15 2°53.643 44.9 10.2 42 9.6
2009-02-26 08:39:34 51°18.159 2°53.66 44.5 10.3 48 9.5
2009-02-26 08:39:39 51°18.17 2°53.674 45.1 10.2 43 9.7
2009-02-26 08:39:44 51°18.179 2°53.692 44.5 10.3 49 9.6
2009-02-26 08:39:49 51°18.19 2°53.707 46.2 10.2 40 9.6
2009-02-26 08:39:54 51°18.198 2°53.725 45.1 10.3 54 9.7
2009-02-26 08:39:59 51°18.209 2°53.741 48.4 10.3 42 9.7
2009-02-26 08:40:04 51°18.218 2°53.759 46.6 10.3 52 9.6
2009-02-26 08:40:09 51°18.227 2°53.776 48.2 10.3 50 9.7
2009-02-26 08:40:14 51°18.236 2°53.795 50.1 10.4 54 9.6
2009-02-26 08:40:19 51°18.244 2°53.813 51.8 10.3 55 9.8
2009-02-26 08:40:24 51°18.252 2°53.833 53.8 10.3 57 9.6
2009-02-26 08:40:29 51°18.26 2°53.851 54.5 10.3 55 9.7
2009-02-26 08:40:34 51°18.266 2°53.872 55.7 10.3 61 9.8
2009-02-26 08:40:39 51°18.275 2°53.89 56.9 10.3 55 9.8
2009-02-26 08:40:44 51°18.281 2°53.91 56.6 10.3 60 9.6
2009-02-26 08:40:49 51°18.289 2°53.93 57.4 10.4 61 9.7
2009-02-26 08:40:54 51°18.295 2°53.951 59.1 10.4 59 9.7
2009-02-26 08:40:59 51°18.304 2°53.97 57.4 10.4 58 9.6
2009-02-26 08:41:04 51°18.31 2°53.991 57.4 10.4 58 9.6
2009-02-26 08:41:09 51°18.318 2°54.01 57.9 10.5 58 9.6
2009-02-26 08:41:14 51°18.325 2°54.031 58.5 10.5 62 9.6
2009-02-26 08:41:19 51°18.332 2°54.051 59.4 10.5 61 9.7
2009-02-26 08:41:24 51°18.338 2°54.072 59.7 10.6 64 9.7
2009-02-26 08:41:29 51°18.345 2°54.092 61.2 10.6 62 9.7
2009-02-26 08:41:34 51°18.351 2°54.113 61.4 10.5 63 9.7
2009-02-26 08:41:39 51°18.358 2°54.134 61.2 10.6 65 9.7
2009-02-26 08:41:44 51°18.365 2°54.154 62 10.5 60 9.7
2009-02-26 08:41:49 51°18.371 2°54.176 60.3 10.7 65 9.6
2009-02-26 08:41:54 51°18.379 2°54.196 61.2 10.6 59 9.7
2009-02-26 08:41:59 51°18.385 2°54.218 60.5 10.7 67 9.6
2009-02-26 08:42:04 51°18.393 2°54.237 61.7 10.5 57 9.7
2009-02-26 08:42:09 51°18.399 2°54.258 59.9 10.5 64 9.6
2009-02-26 08:42:14 51°18.406 2°54.278 60.3 10.5 60 9.7
2009-02-26 08:42:19 51°18.414 2°54.298 60 10.5 60 9.6
2009-02-26 08:42:24 51°18.421 2°54.319 58.5 10.5 61 9.6
2009-02-26 08:42:29 51°18.428 2°54.339 59 10.5 59 9.6
2009-02-26 08:42:34 51°18.435 2°54.359 58.6 10.5 61 9.6
2009-02-26 08:42:39 51°18.443 2°54.379 58.9 10.5 59 9.7
2009-02-26 08:42:44 51°18.45 2°54.399 58.7 10.5 59 9.7
2009-02-26 08:42:49 51°18.457 2°54.419 58.2 10.5 60 9.6
2009-02-26 08:42:54 51°18.464 2°54.44 58.9 10.5 61 9.6
2009-02-26 08:42:59 51°18.472 2°54.46 59.5 10.6 61 9.7
2009-02-26 08:43:04 51°18.479 2°54.479 59.6 10.4 57 9.7
2009-02-26 08:43:09 51°18.486 2°54.5 58.2 10.5 62 9.6
2009-02-26 08:43:14 51°18.494 2°54.519 59.6 10.4 57 9.6
2009-02-26 08:43:19 51°18.501 2°54.539 58.2 10.4 59 9.6
2009-02-26 08:43:24 51°18.508 2°54.56 57.6 10.4 60 9.6
2009-02-26 08:43:29 51°18.516 2°54.578 59.2 10.3 55 9.7
2009-02-26 08:43:34 51°18.522 2°54.599 58.3 10.4 65 9.7
2009-02-26 08:43:39 51°18.531 2°54.618 59.8 10.4 55 9.7
2009-02-26 08:43:44 51°18.537 2°54.639 57.9 10.5 62 9.7
2009-02-26 08:43:49 51°18.545 2°54.658 59.4 10.5 57 9.7
2009-02-26 08:43:54 51°18.552 2°54.678 58.6 10.4 62 9.7
2009-02-26 08:43:59 51°18.559 2°54.698 59.1 10.5 61 9.7
2009-02-26 08:44:04 51°18.566 2°54.718 59.6 10.4 58 9.7
2009-02-26 08:44:09 51°18.573 2°54.738 58.4 10.4 63 9.7
2009-02-26 08:44:14 51°18.58 2°54.758 59.6 10.3 58 9.8
2009-02-26 08:44:19 51°18.588 2°54.778 58.5 10.4 58 9.8
2009-02-26 08:44:24 51°18.595 2°54.797 57.4 10.4 61 9.8
2009-02-26 08:44:29 51°18.602 2°54.817 58.7 10.4 60 9.8
2009-02-26 08:44:34 51°18.61 2°54.837 58.6 10.4 58 9.8
2009-02-26 08:44:39 51°18.617 2°54.857 58 10.4 59 9.9
2009-02-26 08:44:44 51°18.625 2°54.876 58.1 10.3 59 9.9
2009-02-26 08:44:49 51°18.631 2°54.896 57.8 10.4 63 9.8
2009-02-26 08:44:54 51°18.639 2°54.915 59.8 10.3 58 9.9
2009-02-26 08:44:59 51°18.646 2°54.935 59.4 10.3 59 9.9
2009-02-26 08:45:04 51°18.653 2°54.955 58.5 10.4 62 9.9
2009-02-26 08:45:09 51°18.661 2°54.974 59.1 10.3 56 9.9
2009-02-26 08:45:14 51°18.667 2°54.995 57.8 10.4 64 9.9
2009-02-26 08:45:19 51°18.675 2°55.014 60.1 10.4 56 9.9
2009-02-26 08:45:24 51°18.682 2°55.034 58.2 10.4 62 9.9
2009-02-26 08:45:29 51°18.69 2°55.054 58.2 10.4 58 9.9
2009-02-26 08:45:34 51°18.698 2°55.073 58.4 10.4 58 9.9
2009-02-26 08:45:39 51°18.705 2°55.093 57.4 10.4 58 10
2009-02-26 08:45:44 51°18.713 2°55.112 57.7 10.4 61 9.9
2009-02-26 08:45:49 51°18.72 2°55.133 58.7 10.4 62 9.9
2009-02-26 08:45:54 51°18.728 2°55.152 59.6 10.4 58 9.8
2009-02-26 08:45:59 51°18.734 2°55.172 58.5 10.4 64 9.7
2009-02-26 08:46:04 51°18.741 2°55.192 59.8 10.4 61 9.7
2009-02-26 08:46:09 51°18.748 2°55.212 59.8 10.3 62 9.7
2009-02-26 08:46:14 51°18.756 2°55.232 60.2 10.3 63 9.8
2009-02-26 08:46:19 51°18.761 2°55.253 60 10.3 63 9.9
2009-02-26 08:46:24 51°18.768 2°55.273 61.1 10.3 62 9.8
2009-02-26 08:46:29 51°18.775 2°55.293 61.4 10.3 61 9.9
2009-02-26 08:46:34 51°18.782 2°55.313 60.1 10.3 62 9.9
2009-02-26 08:46:39 51°18.789 2°55.333 60.5 10.3 63 9.9
2009-02-26 08:46:44 51°18.795 2°55.354 60.7 10.3 63 9.9
2009-02-26 08:46:49 51°18.801 2°55.374 62 10.3 64 9.9
2009-02-26 08:46:54 51°18.808 2°55.394 62.8 10.2 61 9.7
2009-02-26 08:46:59 51°18.814 2°55.415 61.8 10.2 67 9.7
2009-02-26 08:47:04 51°18.821 2°55.434 62.6 10.1 59 9.7
2009-02-26 08:47:09 51°18.827 2°55.455 61.8 10.2 66 10
2009-02-26 08:47:14 51°18.833 2°55.475 62.5 10.2 65 9.9
2009-02-26 08:47:19 51°18.839 2°55.495 62.9 10.2 65 10
2009-02-26 08:47:24 51°18.845 2°55.515 62.3 10.1 64 9.8
2009-02-26 08:47:29 51°18.852 2°55.536 62.6 10.2 63 9.7
2009-02-26 08:47:34 51°18.858 2°55.557 62.8 10.2 65 9.7
2009-02-26 08:47:39 51°18.864 2°55.577 62.9 10.2 64 9.7
2009-02-26 08:47:44 51°18.87 2°55.597 63.1 10.2 63 9.7
2009-02-26 08:47:49 51°18.876 2°55.617 62.5 10.3 64 9.8
2009-02-26 08:47:54 51°18.883 2°55.637 62.5 10.2 61 9.8
2009-02-26 08:47:59 51°18.889 2°55.658 61.8 10.1 66 9.7
2009-02-26 08:48:04 51°18.896 2°55.677 62.7 10.1 62 9.7
2009-02-26 08:48:09 51°18.903 2°55.697 61.9 10.1 61 9.7
2009-02-26 08:48:14 51°18.909 2°55.717 61 10.1 62 9.8
2009-02-26 08:48:19 51°18.916 2°55.737 61.1 10.1 62 9.9
2009-02-26 08:48:24 51°18.922 2°55.757 61.1 10.1 64 9.6
2009-02-26 08:48:29 51°18.928 2°55.777 62.2 10.1 65 9.7
2009-02-26 08:48:34 51°18.935 2°55.796 62.9 10 61 9.7
2009-02-26 08:48:39 51°18.94 2°55.817 61.8 10 67 9.7
2009-02-26 08:48:44 51°18.948 2°55.836 64 10 59 9.7
2009-02-26 08:48:49 51°18.953 2°55.856 61.8 10 66 9.7
2009-02-26 08:48:54 51°18.96 2°55.875 62 9.9 61 9.7
2009-02-26 08:48:59 51°18.966 2°55.895 62.3 10 65 9.7
2009-02-26 08:49:04 51°18.972 2°55.915 62.5 10 61 9.7
2009-02-26 08:49:09 51°18.979 2°55.934 62 10 62 9.7
2009-02-26 08:49:13 51°18.983 2°55.95 61.7 9.9 63 9.9
2009-02-26 08:49:19 51°18.993 2°55.972 61.8 9.9 61 10
2009-02-26 08:49:24 51°18.998 2°55.993 59.8 9.9 63 9.9
2009-02-26 08:49:29 51°19.006 2°56.01 61.1 9.9 55 9.8
2009-02-26 08:49:34 51°19.011 2°56.031 59 10 68 9.8
2009-02-26 08:49:39 51°19.02 2°56.049 61.9 10 53 9.9
2009-02-26 08:49:44 51°19.025 2°56.07 59.7 10.1 66 9.8
2009-02-26 08:49:49 51°19.032 2°56.088 61.3 10 59 9.8
2009-02-26 08:49:54 51°19.038 2°56.109 61.5 10 65 9.9
2009-02-26 08:49:59 51°19.045 2°56.128 61.9 10 59 9.9
2009-02-26 08:50:04 51°19.052 2°56.147 60.6 10 64 9.8
2009-02-26 08:50:09 51°19.058 2°56.167 61.2 9.9 62 9.9
2009-02-26 08:50:14 51°19.065 2°56.186 61.7 10.1 62 9.9
2009-02-26 08:50:19 51°19.071 2°56.206 61.6 9.9 61 9.8
2009-02-26 08:50:24 51°19.078 2°56.225 60.9 10 63 9.8
2009-02-26 08:50:29 51°19.085 2°56.244 61.2 10 62 9.9
2009-02-26 08:50:34 51°19.092 2°56.263 61.1 10.1 58 9.9
2009-02-26 08:50:39 51°19.098 2°56.283 60.3 10 61 9.9
2009-02-26 08:50:44 51°19.104 2°56.302 61.9 10 64 9.9
2009-02-26 08:50:49 51°19.111 2°56.321 62.2 9.9 59 9.9
2009-02-26 08:50:54 51°19.117 2°56.341 60.5 10 66 9.8
2009-02-26 08:50:59 51°19.124 2°56.36 62.1 9.9 56 9.9
2009-02-26 08:51:04 51°19.131 2°56.379 60.6 10 65 9.8
2009-02-26 08:51:09 51°19.137 2°56.399 61.2 9.9 63 9.8
2009-02-26 08:51:14 51°19.145 2°56.417 61.5 10 58 9.8
2009-02-26 08:51:19 51°19.151 2°56.437 59.7 9.9 62 9.9
2009-02-26 08:51:24 51°19.158 2°56.456 60.3 10 58 9.9
2009-02-26 08:51:29 51°19.165 2°56.475 60.2 10 61 9.8
2009-02-26 08:51:34 51°19.172 2°56.495 60.4 10.1 61 9.8
2009-02-26 08:51:39 51°19.179 2°56.515 61.7 10.1 59 9.7
2009-02-26 08:51:44 51°19.185 2°56.534 60.6 10.1 63 9.7
2009-02-26 08:51:49 51°19.192 2°56.553 61 10 59 9.9
2009-02-26 08:51:54 51°19.198 2°56.574 60.4 10.1 65 9.8
2009-02-26 08:51:59 51°19.206 2°56.592 62.3 9.9 56 9.8
2009-02-26 08:52:04 51°19.211 2°56.612 60.3 10 68 9.8
2009-02-26 08:52:09 51°19.218 2°56.631 62.5 10 61 9.8
2009-02-26 08:52:14 51°19.224 2°56.651 62.3 10.1 63 9.7
2009-02-26 08:52:19 51°19.231 2°56.671 62.3 10 62 9.7
2009-02-26 08:52:24 51°19.237 2°56.69 62.5 10 62 9.7
2009-02-26 08:52:29 51°19.244 2°56.71 61.9 10 63 9.8
2009-02-26 08:52:34 51°19.251 2°56.728 61.8 10 57 9.8
2009-02-26 08:52:39 51°19.257 2°56.749 60.1 10.1 67 9.8
2009-02-26 08:52:44 51°19.264 2°56.768 61.8 10 57 9.8
2009-02-26 08:52:49 51°19.27 2°56.788 61.2 10.1 65 9.8
2009-02-26 08:52:54 51°19.277 2°56.807 62.5 10 58 9.6
2009-02-26 08:52:59 51°19.284 2°56.826 61.3 10.1 64 9.7
2009-02-26 08:53:04 51°19.291 2°56.845 60.8 10 57 9.7
2009-02-26 08:53:09 51°19.297 2°56.865 60.1 10.1 63 9.7
2009-02-26 08:53:14 51°19.305 2°56.884 60.9 9.9 58 9.8
2009-02-26 08:53:19 51°19.311 2°56.903 60.3 9.9 61 9.7
2009-02-26 08:53:24 51°19.318 2°56.922 60.3 10.1 61 9.7
2009-02-26 08:53:29 51°19.325 2°56.942 60 10.1 60 9.7
2009-02-26 08:53:34 51°19.332 2°56.961 60.3 10.1 60 9.7
2009-02-26 08:53:39 51°19.339 2°56.98 60.4 10 60 9.6
2009-02-26 08:53:44 51°19.346 2°56.999 60.9 10.1 62 9.6
2009-02-26 08:53:49 51°19.352 2°57.019 61.2 10.1 62 9.6
2009-02-26 08:53:54 51°19.359 2°57.039 61.6 10 62 9.6
2009-02-26 08:53:59 51°19.365 2°57.059 62.4 10.1 61 9.7
2009-02-26 08:54:04 51°19.372 2°57.079 61.8 10.2 61 9.6
2009-02-26 08:54:09 51°19.378 2°57.099 61.9 10.1 63 9.6
2009-02-26 08:54:14 51°19.385 2°57.118 62.5 10 60 9.6
2009-02-26 08:54:19 51°19.391 2°57.138 61.1 10.1 65 9.6
2009-02-26 08:54:24 51°19.398 2°57.157 62.7 10 60 9.6
2009-02-26 08:54:29 51°19.405 2°57.176 61.5 10 59 9.5
2009-02-26 08:54:34 51°19.41 2°57.197 60.8 10.1 66 9.5
2009-02-26 08:54:39 51°19.418 2°57.215 62.8 10 59 9.6
2009-02-26 08:54:44 51°19.423 2°57.236 61.4 10.1 66 9.5
2009-02-26 08:54:49 51°19.431 2°57.255 62.8 10 57 9.6
2009-02-26 08:54:54 51°19.436 2°57.276 61.2 10.2 68 9.5
2009-02-26 08:54:59 51°19.444 2°57.294 63.1 10.1 57 9.7
2009-02-26 08:55:04 51°19.449 2°57.315 61.2 10.1 67 9.5
2009-02-26 08:55:09 51°19.457 2°57.334 62.5 10.1 57 9.5
2009-02-26 08:55:14 51°19.462 2°57.355 62.1 10.2 68 9.4
2009-02-26 08:55:19 51°19.47 2°57.374 63.5 10.1 59 9.5
2009-02-26 08:55:24 51°19.475 2°57.394 62.3 10.1 62 9.5
2009-02-26 08:55:29 51°19.483 2°57.413 61.8 10 60 9.4
2009-02-26 08:55:33 51°19.487 2°57.429 62.3 10.1 62 9.5
2009-02-26 08:55:39 51°19.496 2°57.452 61.1 10.1 61 9.5
2009-02-26 08:55:44 51°19.503 2°57.472 61 10 60 9.6
2009-02-26 08:55:49 51°19.51 2°57.491 60.9 10.1 56 9.6
2009-02-26 08:55:54 51°19.517 2°57.511 59.1 10.2 63 9.5
2009-02-26 08:55:59 51°19.524 2°57.529 60.9 10.1 56 9.5
2009-02-26 08:56:04 51°19.531 2°57.549 59.5 10.2 63 9.5
2009-02-26 08:56:09 51°19.538 2°57.568 60.2 10.1 59 9.4
2009-02-26 08:56:14 51°19.545 2°57.588 60.3 10.1 61 9.4
2009-02-26 08:56:19 51°19.552 2°57.607 60.6 10.2 61 9.4
2009-02-26 08:56:24 51°19.559 2°57.627 61.1 10.2 61 9.5
2009-02-26 08:56:29 51°19.565 2°57.647 61 10.2 62 9.5
2009-02-26 08:56:34 51°19.573 2°57.666 61.4 10.1 60 9.4
2009-02-26 08:56:39 51°19.579 2°57.686 61.4 10.1 63 9.4
2009-02-26 08:56:44 51°19.585 2°57.707 62.5 10.2 61 9.4
2009-02-26 08:56:49 51°19.592 2°57.726 62.5 10.2 61 9.4
2009-02-26 08:56:54 51°19.599 2°57.746 62 10.1 62 9.4
2009-02-26 08:56:59 51°19.605 2°57.766 62.2 10.2 62 9.4
2009-02-26 08:57:04 51°19.611 2°57.786 62 10.1 64 9.4
2009-02-26 08:57:09 51°19.619 2°57.806 62.7 10.2 60 9.5
2009-02-26 08:57:14 51°19.625 2°57.826 61.8 10.2 63 9.4
2009-02-26 08:57:19 51°19.631 2°57.846 62.1 10.1 61 9.4
2009-02-26 08:57:24 51°19.639 2°57.864 61.6 10.1 60 9.4
2009-02-26 08:57:29 51°19.645 2°57.885 59.6 10.1 64 9.5
2009-02-26 08:57:34 51°19.653 2°57.904 61.5 10.2 60 9.5
2009-02-26 08:57:39 51°19.66 2°57.923 61.2 10 57 9.5
2009-02-26 08:57:44 51°19.666 2°57.943 59.9 10.3 64 9.4
2009-02-26 08:57:49 51°19.674 2°57.961 61.5 10.1 55 9.5
2009-02-26 08:57:54 51°19.681 2°57.981 58.9 10.2 62 9.4
2009-02-26 08:57:59 51°19.688 2°58.001 60.3 10.1 58 9.3
2009-02-26 08:58:04 51°19.695 2°58.02 60.5 10.2 61 9.3
2009-02-26 08:58:09 51°19.702 2°58.04 60 10.2 61 9.4
2009-02-26 08:58:14 51°19.708 2°58.059 61.2 10.1 62 9.4
2009-02-26 08:58:19 51°19.715 2°58.079 61.4 10.3 63 9.5
2009-02-26 08:58:24 51°19.722 2°58.1 61.8 10.3 61 9.4
2009-02-26 08:58:29 51°19.729 2°58.119 61.8 10.2 62 9.5
2009-02-26 08:58:34 51°19.735 2°58.14 62.5 10.3 62 9.4
2009-02-26 08:58:39 51°19.742 2°58.16 61.9 10.3 63 9.5
2009-02-26 08:58:44 51°19.749 2°58.179 61.8 10.1 59 9.4
2009-02-26 08:58:49 51°19.756 2°58.199 61.3 10.3 63 9.3
2009-02-26 08:58:54 51°19.763 2°58.218 61.6 10.1 58 9.2
2009-02-26 08:58:59 51°19.769 2°58.238 60.6 10.2 65 9.2
2009-02-26 08:59:04 51°19.777 2°58.257 62 10.2 58 9.3
2009-02-26 08:59:09 51°19.784 2°58.277 60.7 10.2 60 9.4
2009-02-26 08:59:14 51°19.79 2°58.297 60.8 10.1 63 9.2
2009-02-26 08:59:19 51°19.797 2°58.316 61.9 10.2 58 9.2
2009-02-26 08:59:24 51°19.804 2°58.336 60.3 10.2 61 9.2
2009-02-26 08:59:29 51°19.811 2°58.355 60.9 10.1 60 9.3
2009-02-26 08:59:34 51°19.818 2°58.375 61.4 10.2 62 9.4
2009-02-26 08:59:39 51°19.825 2°58.395 61.2 10.2 60 9.4
2009-02-26 08:59:44 51°19.831 2°58.415 61.8 10.2 63 9.3
2009-02-26 08:59:49 51°19.839 2°58.434 62 10.3 60 9.4
2009-02-26 08:59:54 51°19.845 2°58.455 61.3 10.2 63 9.2
2009-02-26 08:59:59 51°19.852 2°58.474 62.4 10.2 59 9.5
2009-02-26 09:00:04 51°19.858 2°58.494 61.2 10.2 64 9.3
2009-02-26 09:00:09 51°19.866 2°58.513 62.3 10.1 58 9.5
2009-02-26 09:00:14 51°19.872 2°58.533 61.1 10.2 62 9.5
2009-02-26 09:00:19 51°19.879 2°58.553 61.6 10.2 60 9.3
2009-02-26 09:00:24 51°19.887 2°58.572 61.1 10.1 57 9.3
2009-02-26 09:00:29 51°19.894 2°58.591 59.2 10.1 61 9.4
2009-02-26 09:00:34 51°19.901 2°58.61 60.3 10.1 58 9.5
2009-02-26 09:00:39 51°19.909 2°58.629 59.1 10.2 62 9.3
2009-02-26 09:00:44 51°19.915 2°58.649 60.3 10.2 60 9.3
2009-02-26 09:00:49 51°19.923 2°58.669 61.1 10.3 58 9.4
2009-02-26 09:00:54 51°19.929 2°58.689 60.7 10.2 63 9.3
2009-02-26 09:00:59 51°19.936 2°58.708 61.8 10.2 59 9.4
2009-02-26 09:01:04 51°19.943 2°58.729 61.2 10.4 62 9.4
2009-02-26 09:01:09 51°19.951 2°58.748 61.2 10.3 58 9.3
2009-02-26 09:01:14 51°19.957 2°58.768 60.4 10.3 64 9.3
2009-02-26 09:01:19 51°19.965 2°58.787 61.8 10.2 57 9.3
2009-02-26 09:01:24 51°19.972 2°58.807 60.5 10.2 62 9.3
2009-02-26 09:01:29 51°19.978 2°58.827 60.3 10.2 61 9.2
2009-02-26 09:01:34 51°19.986 2°58.846 61.6 10.1 59 9.2
2009-02-26 09:01:39 51°19.992 2°58.866 60.8 10.1 61 9.2
2009-02-26 09:01:44 51°20 2°58.884 60.8 10.1 61 9.2
2009-02-26 09:01:49 51°20.006 2°58.905 60.8 10.2 64 9.2
2009-02-26 09:01:54 51°20.015 2°58.922 60.7 10.1 52 9.2
2009-02-26 09:01:59 51°20.02 2°58.943 58.5 10.1 66 9.2
2009-02-26 09:02:04 51°20.029 2°58.961 61.2 10.1 53 9.2
2009-02-26 09:02:09 51°20.034 2°58.982 59 10.2 66 9.2
2009-02-26 09:02:14 51°20.043 2°58.999 61.4 10.1 55 9.2
2009-02-26 09:02:19 51°20.048 2°59.02 59.3 10.1 66 9
2009-02-26 09:02:24 51°20.056 2°59.038 62.3 10.1 56 9.2
2009-02-26 09:02:29 51°20.062 2°59.059 61.2 10.2 64 9.2
2009-02-26 09:02:34 51°20.071 2°59.077 60.9 10.1 57 9.4
2009-02-26 09:02:39 51°20.076 2°59.098 61.1 10.2 64 9.2
2009-02-26 09:02:44 51°20.084 2°59.117 62.5 10.3 58 9.2
2009-02-26 09:02:49 51°20.09 2°59.137 61.1 10.2 63 9.3
2009-02-26 09:02:54 51°20.097 2°59.157 61.2 10.2 62 9.3
2009-02-26 09:02:59 51°20.105 2°59.176 62 10.1 55 9.3
2009-02-26 09:03:04 51°20.111 2°59.196 59.6 10.2 66 9.2
2009-02-26 09:03:09 51°20.118 2°59.216 62.6 10.2 60 9.2
2009-02-26 09:03:14 51°20.126 2°59.235 60.9 10.3 60 9.2
2009-02-26 09:03:19 51°20.131 2°59.255 60.5 10.1 62 9.3
2009-02-26 09:03:24 51°20.139 2°59.274 61.2 10.3 61 9.3
2009-02-26 09:03:29 51°20.145 2°59.295 61.1 10.2 63 9.2
2009-02-26 09:03:34 51°20.152 2°59.315 62.2 10.3 63 9.2
2009-02-26 09:03:39 51°20.159 2°59.335 62.7 10.2 60 9.2
2009-02-26 09:03:44 51°20.166 2°59.354 61.6 10.2 61 9.2
2009-02-26 09:03:49 51°20.173 2°59.374 61 10.1 60 9.2
2009-02-26 09:03:54 51°20.18 2°59.394 60.8 10.2 61 9.2
2009-02-26 09:03:59 51°20.188 2°59.413 60.6 10.2 62 9.3
2009-02-26 09:04:04 51°20.194 2°59.433 60.1 10.2 59 9.2
2009-02-26 09:04:09 51°20.202 2°59.453 60.9 10.3 61 9.2
2009-02-26 09:04:14 51°20.209 2°59.472 61.4 10.2 60 9.3
2009-02-26 09:04:19 51°20.215 2°59.492 60.6 10.3 64 9.3
2009-02-26 09:04:24 51°20.222 2°59.512 61.9 10.3 58 9.3
2009-02-26 09:04:29 51°20.23 2°59.532 61.5 10.3 60 9.4
2009-02-26 09:04:34 51°20.236 2°59.553 60.7 10.3 62 9.3
2009-02-26 09:04:39 51°20.244 2°59.572 61.9 10.3 59 9.3
2009-02-26 09:04:44 51°20.25 2°59.592 60.5 10.3 62 9.4
2009-02-26 09:04:49 51°20.257 2°59.612 60.7 10.4 62 9.4
2009-02-26 09:04:54 51°20.265 2°59.632 61.9 10.4 60 9.3
2009-02-26 09:04:59 51°20.271 2°59.652 61 10.5 62 9.3
2009-02-26 09:05:04 51°20.279 2°59.672 61.1 10.4 59 9.3
2009-02-26 09:05:09 51°20.286 2°59.693 60.9 10.4 61 9.3
2009-02-26 09:05:14 51°20.293 2°59.713 60.7 10.4 61 9.4
2009-02-26 09:05:19 51°20.299 2°59.733 61.3 10.5 63 9.4
2009-02-26 09:05:24 51°20.307 2°59.754 62.3 10.5 60 9.4
2009-02-26 09:05:29 51°20.313 2°59.775 61.6 10.5 63 9.4
2009-02-26 09:05:34 51°20.32 2°59.795 61.9 10.5 62 9.4
2009-02-26 09:05:39 51°20.327 2°59.816 62.4 10.6 63 9.5
2009-02-26 09:05:44 51°20.334 2°59.836 62.2 10.6 60 9.5
2009-02-26 09:05:49 51°20.34 2°59.857 61.4 10.6 64 9.4
2009-02-26 09:05:54 51°20.348 2°59.878 62.5 10.6 61 9.5
2009-02-26 09:05:59 51°20.355 2°59.898 61.8 10.6 62 9.4
2009-02-26 09:06:04 51°20.362 2°59.919 61.1 10.7 60 9.6
2009-02-26 09:06:09 51°20.37 2°59.94 61.2 10.7 61 9.6
2009-02-26 09:06:14 51°20.376 2°59.961 60.8 10.7 63 9.6
2009-02-26 09:06:19 51°20.384 2°59.981 62.3 10.7 59 9.7
2009-02-26 09:06:24 51°20.391 3°0.002 60.8 10.6 63 9.7
2009-02-26 09:06:29 51°20.399 3°0.021 61.2 10.6 59 9.6
2009-02-26 09:06:34 51°20.405 3°0.042 60.6 10.6 62 9.6
2009-02-26 09:06:39 51°20.413 3°0.062 60.6 10.6 63 9.5
2009-02-26 09:06:44 51°20.419 3°0.083 61.1 10.4 59 9.5
2009-02-26 09:06:49 51°20.428 3°0.102 61.5 10.5 55 9.6
2009-02-26 09:06:54 51°20.433 3°0.124 59.2 10.5 66 9.6
2009-02-26 09:06:59 51°20.44 3°0.144 62 10.5 58 9.5
2009-02-26 09:07:04 51°20.447 3°0.164 61.7 10.4 64 9.6
2009-02-26 09:07:09 51°20.453 3°0.185 61.9 10.5 65 9.8
2009-02-26 09:07:14 51°20.461 3°0.205 62.7 10.5 61 9.8
2009-02-26 09:07:19 51°20.468 3°0.225 61.6 10.5 64 9.8
2009-02-26 09:07:24 51°20.474 3°0.246 61.9 10.4 59 9.8
2009-02-26 09:07:29 51°20.482 3°0.266 61.8 10.5 60 9.8
2009-02-26 09:07:34 51°20.488 3°0.286 61 10.4 61 9.8
2009-02-26 09:07:39 51°20.496 3°0.307 60.6 10.6 66 9.8
2009-02-26 09:07:44 51°20.503 3°0.327 62.2 10.4 54 10
2009-02-26 09:07:49 51°20.51 3°0.347 59 10.5 64 9.7
2009-02-26 09:07:54 51°20.517 3°0.367 61.2 10.4 60 9.7
2009-02-26 09:07:59 51°20.524 3°0.387 61.3 10.5 60 9.7
2009-02-26 09:08:04 51°20.53 3°0.408 60.7 10.5 61 9.7
2009-02-26 09:08:09 51°20.538 3°0.428 61.7 10.6 61 9.7
2009-02-26 09:08:14 51°20.544 3°0.45 61.4 10.5 63 10
2009-02-26 09:08:19 51°20.551 3°0.47 62.3 10.6 62 9.8
2009-02-26 09:08:24 51°20.557 3°0.492 62.5 10.7 63 9.8
2009-02-26 09:08:29 51°20.565 3°0.512 62.6 10.6 61 9.7
2009-02-26 09:08:34 51°20.571 3°0.533 62.2 10.6 64 9.6
2009-02-26 09:08:39 51°20.579 3°0.554 62.6 10.7 61 9.7
2009-02-26 09:08:44 51°20.585 3°0.575 61.6 10.7 64 9.8
2009-02-26 09:08:49 51°20.593 3°0.595 61.9 10.6 59 9.7
2009-02-26 09:08:54 51°20.6 3°0.616 60.7 10.6 63 9.7
2009-02-26 09:08:59 51°20.607 3°0.637 61.8 10.6 59 9.8
2009-02-26 09:09:04 51°20.614 3°0.657 61.8 10.7 62 9.7
2009-02-26 09:09:09 51°20.621 3°0.678 61.1 10.7 61 9.7
2009-02-26 09:09:14 51°20.628 3°0.698 60.8 10.5 59 9.7
2009-02-26 09:09:19 51°20.636 3°0.719 60.3 10.6 62 9.7
2009-02-26 09:09:24 51°20.643 3°0.738 60.3 10.6 56 9.7
2009-02-26 09:09:29 51°20.65 3°0.759 59 10.7 64 9.7
2009-02-26 09:09:34 51°20.658 3°0.779 61 10.6 57 9.7
2009-02-26 09:09:39 51°20.665 3°0.8 59.4 10.6 65 9.7
2009-02-26 09:09:44 51°20.672 3°0.821 61.1 10.6 58 9.7
2009-02-26 09:09:49 51°20.679 3°0.841 61.4 10.6 62 9.7
2009-02-26 09:09:54 51°20.685 3°0.862 61.4 10.6 64 10
2009-02-26 09:09:59 51°20.694 3°0.882 62.6 10.6 59 9.7
2009-02-26 09:10:04 51°20.7 3°0.904 61.5 10.6 60 9.9
2009-02-26 09:10:09 51°20.708 3°0.924 61.2 10.7 60 9.7
2009-02-26 09:10:14 51°20.714 3°0.945 61.2 10.7 62 9.7
2009-02-26 09:10:19 51°20.722 3°0.965 60.9 10.7 59 9.7
2009-02-26 09:10:24 51°20.729 3°0.986 59.9 10.7 62 9.7
2009-02-26 09:10:29 51°20.737 3°1.006 60.5 10.6 60 9.8
2009-02-26 09:10:34 51°20.743 3°1.028 60.8 10.7 64 9.8
2009-02-26 09:10:39 51°20.75 3°1.049 62.4 10.7 60 9.7
2009-02-26 09:10:44 51°20.757 3°1.069 62.2 10.7 65 9.7
2009-02-26 09:10:49 51°20.763 3°1.091 62.4 10.7 66 9.8
2009-02-26 09:10:54 51°20.772 3°1.11 63 10.7 58 9.7
2009-02-26 09:10:59 51°20.776 3°1.133 61.4 10.6 64 9.7
2009-02-26 09:11:04 51°20.786 3°1.152 63.8 10.7 57 9.7
2009-02-26 09:11:09 51°20.79 3°1.175 60.2 10.8 69 9.8
2009-02-26 09:11:14 51°20.799 3°1.194 62.9 10.7 56 10
2009-02-26 09:11:19 51°20.805 3°1.216 61.1 10.7 66 9.9
2009-02-26 09:11:24 51°20.813 3°1.236 62.1 10.6 59 9.9
2009-02-26 09:11:29 51°20.819 3°1.257 61.5 10.7 64 10
2009-02-26 09:11:33 51°20.826 3°1.273 61.7 10.7 60 9.9
2009-02-26 09:11:39 51°20.833 3°1.299 61.3 10.7 64 10
2009-02-26 09:11:44 51°20.84 3°1.32 62.1 10.7 60 10
2009-02-26 09:11:49 51°20.848 3°1.341 61.7 10.7 61 10.2
2009-02-26 09:11:54 51°20.854 3°1.362 61.6 10.8 65 9.9
2009-02-26 09:11:59 51°20.862 3°1.382 62.7 10.7 59 9.9
2009-02-26 09:12:04 51°20.868 3°1.404 60.8 10.8 67 9.9
2009-02-26 09:12:09 51°20.876 3°1.424 62.9 10.7 58 10
2009-02-26 09:12:14 51°20.883 3°1.446 61.2 10.8 64 10
2009-02-26 09:12:19 51°20.89 3°1.467 62.2 10.8 60 10.1
2009-02-26 09:12:24 51°20.897 3°1.488 62.3 10.8 62 10.1
2009-02-26 09:12:29 51°20.904 3°1.509 61.6 10.9 64 10.2
2009-02-26 09:12:34 51°20.911 3°1.53 62.6 10.8 61 10.1
2009-02-26 09:12:39 51°20.918 3°1.552 62.2 10.8 64 10.1
2009-02-26 09:12:44 51°20.925 3°1.573 63.2 10.8 60 10.2
2009-02-26 09:12:49 51°20.932 3°1.594 61.9 10.9 63 10.1
2009-02-26 09:12:54 51°20.94 3°1.615 62.3 10.9 59 10.1
2009-02-26 09:12:59 51°20.946 3°1.636 61.1 10.8 64 10.1
2009-02-26 09:13:04 51°20.954 3°1.657 61.8 10.9 61 10.2
2009-02-26 09:13:09 51°20.962 3°1.678 61.5 10.8 59 10.3
2009-02-26 09:13:14 51°20.968 3°1.699 60.3 10.8 63 10.1
2009-02-26 09:13:19 51°20.977 3°1.719 61.8 10.9 56 10.2
2009-02-26 09:13:24 51°20.983 3°1.741 60.3 10.8 64 10.1
2009-02-26 09:13:29 51°20.991 3°1.761 61.7 10.7 58 10.2
2009-02-26 09:13:34 51°20.998 3°1.782 60.6 10.7 62 10.2
2009-02-26 09:13:39 51°21.005 3°1.803 60.9 10.8 63 10.2
2009-02-26 09:13:44 51°21.013 3°1.823 61.8 10.7 60 10.3
2009-02-26 09:13:49 51°21.019 3°1.845 61.2 10.7 62 10.2
2009-02-26 09:13:54 51°21.028 3°1.864 61.3 10.7 59 10.2
2009-02-26 09:13:59 51°21.035 3°1.885 60.1 10.7 60 10.3
2009-02-26 09:14:04 51°21.041 3°1.907 60.1 10.8 62 10.2
2009-02-26 09:14:09 51°21.05 3°1.926 62.1 10.8 56 10.2
2009-02-26 09:14:14 51°21.057 3°1.948 59.8 10.8 63 10.3
2009-02-26 09:14:19 51°21.064 3°1.968 61.1 10.9 61 10.3
2009-02-26 09:14:24 51°21.072 3°1.989 61.4 10.7 62 10.3
2009-02-26 09:14:29 51°21.078 3°2.011 61 10.9 64 10.2
2009-02-26 09:14:34 51°21.087 3°2.03 62.4 10.8 56 10.3
2009-02-26 09:14:39 51°21.092 3°2.053 60.3 10.8 68 10.3
2009-02-26 09:14:44 51°21.1 3°2.073 63.4 10.8 55 10.4
2009-02-26 09:14:49 51°21.107 3°2.094 61.2 10.7 64 10.3
2009-02-26 09:14:54 51°21.114 3°2.115 62.3 10.7 61 10.4
2009-02-26 09:14:59 51°21.121 3°2.135 62.6 10.8 64 10.4
2009-02-26 09:15:04 51°21.128 3°2.157 61.4 10.8 59 10.4
2009-02-26 09:15:09 51°21.136 3°2.177 61.1 10.7 61 10.3
2009-02-26 09:15:14 51°21.142 3°2.198 61.8 10.8 62 10.4
2009-02-26 09:15:19 51°21.151 3°2.218 61.8 10.7 58 10.4
2009-02-26 09:15:24 51°21.157 3°2.24 60.6 10.7 61 10.4
2009-02-26 09:15:29 51°21.165 3°2.259 60.9 10.7 58 10.5
2009-02-26 09:15:34 51°21.171 3°2.281 59.8 10.7 65 10.5
2009-02-26 09:15:39 51°21.178 3°2.302 62.2 10.7 69 10.4
2009-02-26 09:15:44 51°21.183 3°2.324 65.6 10.7 64 10.5
2009-02-26 09:15:49 51°21.189 3°2.345 65.6 10.6 67 10.4
2009-02-26 09:15:54 51°21.192 3°2.369 67.6 10.7 72 10.4
2009-02-26 09:15:59 51°21.2 3°2.39 70 10.7 65 10.4
2009-02-26 09:16:04 51°21.203 3°2.413 67.8 10.9 78 10.4
2009-02-26 09:16:09 51°21.209 3°2.435 71.2 10.8 66 10.5
2009-02-26 09:16:14 51°21.212 3°2.459 69.8 10.8 77 10.3
2009-02-26 09:16:19 51°21.217 3°2.481 73 10.7 70 10.4
2009-02-26 09:16:24 51°21.221 3°2.504 72 10.7 74 10.2
2009-02-26 09:16:29 51°21.225 3°2.527 72 10.8 78 10.2
2009-02-26 09:16:34 51°21.229 3°2.55 74.6 10.8 73 10.3
2009-02-26 09:16:39 51°21.232 3°2.573 73.1 10.8 79 10.3
2009-02-26 09:16:44 51°21.236 3°2.597 74.9 11 73 10.3
2009-02-26 09:16:49 51°21.24 3°2.62 74.6 11 77 10.2
2009-02-26 09:16:54 51°21.243 3°2.643 74.2 10.7 75 10.2
2009-02-26 09:16:59 51°21.246 3°2.667 75.2 10.8 78 10.2
2009-02-26 09:17:04 51°21.251 3°2.689 75.3 10.8 72 10.2
2009-02-26 09:17:09 51°21.253 3°2.713 73.4 10.7 80 10.1
2009-02-26 09:17:14 51°21.258 3°2.735 75.1 10.7 71 10.2
2009-02-26 09:17:19 51°21.261 3°2.759 73.8 11 80 10.1
2009-02-26 09:17:24 51°21.266 3°2.782 74.4 10.8 69 10.1
2009-02-26 09:17:29 51°21.268 3°2.806 72.5 10.8 82 10.1
2009-02-26 09:17:34 51°21.273 3°2.828 75.7 10.8 71 10.2
2009-02-26 09:17:39 51°21.276 3°2.851 73.9 10.8 77 10.1
2009-02-26 09:17:44 51°21.281 3°2.874 73.9 10.7 76 10.2
2009-02-26 09:17:49 51°21.284 3°2.897 74.2 10.7 75 10.2
2009-02-26 09:17:54 51°21.288 3°2.921 74 10.8 77 10.3
2009-02-26 09:17:59 51°21.291 3°2.944 75 10.9 74 10.3
2009-02-26 09:18:04 51°21.295 3°2.967 74.1 10.8 80 10.3
2009-02-26 09:18:09 51°21.298 3°2.991 75.6 10.8 77 10.3
2009-02-26 09:18:14 51°21.302 3°3.014 75.8 10.9 75 10.4
2009-02-26 09:18:19 51°21.306 3°3.038 74.6 10.9 76 10.4
2009-02-26 09:18:24 51°21.309 3°3.061 74.5 10.8 77 10.5
2009-02-26 09:18:29 51°21.312 3°3.084 75 10.9 77 10.5
2009-02-26 09:18:34 51°21.317 3°3.107 74.2 10.8 75 10.4
2009-02-26 09:18:39 51°21.32 3°3.13 74.7 10.8 74 10.5
2009-02-26 09:18:44 51°21.324 3°3.154 74.1 10.8 77 10.5
2009-02-26 09:18:49 51°21.327 3°3.177 74.3 10.8 77 10.5
2009-02-26 09:18:54 51°21.33 3°3.201 75.5 10.9 78 10.5
2009-02-26 09:18:59 51°21.334 3°3.224 76.4 10.9 75 10.6
2009-02-26 09:19:04 51°21.337 3°3.248 75.4 10.9 76 10.5
2009-02-26 09:19:09 51°21.342 3°3.27 75 10.9 75 10.5
2009-02-26 09:19:14 51°21.345 3°3.294 74.2 10.8 76 10.5
2009-02-26 09:19:19 51°21.349 3°3.317 74.2 10.8 76 10.5
2009-02-26 09:19:24 51°21.353 3°3.34 74.6 10.9 74 10.4
2009-02-26 09:19:29 51°21.356 3°3.364 74.2 11 78 10.5
2009-02-26 09:19:34 51°21.361 3°3.387 75.2 10.9 72 10.5
2009-02-26 09:19:39 51°21.364 3°3.411 73.8 11 79 10.5
2009-02-26 09:19:44 51°21.369 3°3.434 74.8 10.9 73 10.6
2009-02-26 09:19:49 51°21.372 3°3.457 73.6 10.9 76 10.5
2009-02-26 09:19:54 51°21.376 3°3.48 73.2 10.8 77 10.5
2009-02-26 09:19:59 51°21.38 3°3.503 74.4 10.8 71 10.5
2009-02-26 09:20:04 51°21.383 3°3.527 73 10.9 80 10.5
2009-02-26 09:20:09 51°21.388 3°3.55 74.4 10.8 70 10.5
2009-02-26 09:20:14 51°21.39 3°3.574 72.9 10.9 82 10.5
2009-02-26 09:20:19 51°21.395 3°3.596 75.9 10.7 69 10.6
2009-02-26 09:20:24 51°21.398 3°3.619 73.4 10.8 80 10.5
2009-02-26 09:20:29 51°21.402 3°3.642 73.9 10.7 71 10.6
2009-02-26 09:20:34 51°21.406 3°3.665 73.3 10.7 78 10.6
2009-02-26 09:20:39 51°21.411 3°3.688 73.8 10.8 69 10.7
2009-02-26 09:20:44 51°21.413 3°3.711 72.3 11 82 10.5
2009-02-26 09:20:49 51°21.418 3°3.734 74.3 10.8 71 10.6
2009-02-26 09:20:54 51°21.422 3°3.758 73.7 10.9 76 10.5
2009-02-26 09:20:59 51°21.426 3°3.781 72.8 10.9 74 10.6
2009-02-26 09:21:04 51°21.429 3°3.804 73.4 10.9 75 10.6
2009-02-26 09:21:09 51°21.434 3°3.827 73.8 10.8 73 10.7
2009-02-26 09:21:14 51°21.437 3°3.851 72.9 10.9 78 10.7
2009-02-26 09:21:19 51°21.442 3°3.874 73.7 10.9 73 10.7
2009-02-26 09:21:24 51°21.445 3°3.898 73.3 11 77 10.6
2009-02-26 09:21:29 51°21.451 3°3.92 73.9 10.8 69 10.7
2009-02-26 09:21:34 51°21.453 3°3.944 71.7 11 82 10.6
2009-02-26 09:21:39 51°21.459 3°3.966 74.6 10.9 66 10.7
2009-02-26 09:21:44 51°21.461 3°3.99 71.3 11.1 82 10.7
2009-02-26 09:21:49 51°21.467 3°4.013 74.1 11 69 10.7
2009-02-26 09:21:54 51°21.471 3°4.036 72.8 10.8 76 10.7
2009-02-26 09:21:59 51°21.475 3°4.059 72.5 10.8 72 10.7
2009-02-26 09:22:04 51°21.479 3°4.083 72.7 11 80 10.7
2009-02-26 09:22:09 51°21.483 3°4.106 74.4 10.9 71 10.8
2009-02-26 09:22:14 51°21.487 3°4.128 72.1 10.7 74 10.7
2009-02-26 09:22:19 51°21.491 3°4.151 72.8 10.9 71 10.7
2009-02-26 09:22:24 51°21.495 3°4.175 73.1 11.1 76 10.8
2009-02-26 09:22:29 51°21.5 3°4.198 73.2 10.9 73 10.8
2009-02-26 09:22:34 51°21.503 3°4.221 73 10.9 76 10.7
2009-02-26 09:22:39 51°21.508 3°4.245 73.4 11 72 10.8
2009-02-26 09:22:44 51°21.513 3°4.268 72.8 10.9 72 10.8
2009-02-26 09:22:49 51°21.516 3°4.291 71.9 10.9 76 10.8
2009-02-26 09:22:54 51°21.522 3°4.314 72.9 10.9 70 10.8
2009-02-26 09:22:59 51°21.525 3°4.338 71.5 11 76 10.8
2009-02-26 09:23:04 51°21.529 3°4.361 73.7 11 73 10.7
2009-02-26 09:23:09 51°21.534 3°4.384 73.3 10.9 74 10.8
2009-02-26 09:23:14 51°21.537 3°4.408 72.7 10.9 78 10.8
2009-02-26 09:23:19 51°21.54 3°4.431 74.6 11 75 10.8
2009-02-26 09:23:24 51°21.545 3°4.454 75.1 10.8 72 10.8
2009-02-26 09:23:29 51°21.548 3°4.478 72.9 10.9 79 10.9
2009-02-26 09:23:34 51°21.552 3°4.501 74.8 10.9 73 10.9
2009-02-26 09:23:39 51°21.556 3°4.524 74.1 10.9 75 10.8
2009-02-26 09:23:44 51°21.56 3°4.548 72.9 11 77 10.8
2009-02-26 09:23:49 51°21.564 3°4.571 74.5 10.9 75 10.8
2009-02-26 09:23:54 51°21.567 3°4.594 73.7 10.8 78 10.9
2009-02-26 09:23:59 51°21.57 3°4.618 75.2 10.9 76 10.8
2009-02-26 09:24:04 51°21.576 3°4.64 73.6 10.7 73 10.8
2009-02-26 09:24:09 51°21.578 3°4.664 72.7 10.8 83 10.7
2009-02-26 09:24:14 51°21.583 3°4.686 75.1 10.8 70 10.8